Time;durP1;ratioP1;P1;durP2;ratioP2;P2;SDS_P1;SDS_P2;PMS_P1;PMS_P2;Temp;Humidity;BMP_temperature;BMP_pressure;BME280_temperature;BME280_humidity;BME280_pressure;Samples;Min_cycle;Max_cycle;Signal;HPM_P1;HPM_P2
2022/06/28 00:01:28;;;;;;;4.10;3.50;;;;;;;25.04;44.07;100337.24;107933;1288;22004;-81
2022/06/28 00:04:30;;;;;;;4.10;3.50;;;;;;;25.02;44.07;100328.54;107621;1288;23485;-81
2022/06/28 00:08:18;;;;;;;;;;;;;;;;;;;;;
2022/06/28 00:11:39;;;;;;;8.60;3.20;;;;;;;25.02;44.21;100334.38;109683;1263;23612;-80
2022/06/28 00:18:21;;;;;;;5.00;4.10;;;;;;;24.92;44.31;100336.88;108662;1276;22179;-81
2022/06/28 00:21:39;;;;;;;5.00;3.80;;;;;;;24.87;44.50;100340.20;108614;1273;447937;-81
2022/06/28 00:25:06;;;;;;;3.70;3.10;;;;;;;24.80;44.78;100334.54;108945;1273;22030;-80
2022/06/28 00:28:39;;;;;;;4.30;3.80;;;;;;;24.78;44.98;100337.17;108820;1273;23600;-81
2022/06/28 00:31:53;;;;;;;4.70;4.10;;;;;;;24.74;44.98;100333.70;108506;1276;23589;-81
2022/06/28 00:34:54;;;;;;;;;;;;;;;;;;;;;
2022/06/28 00:38:16;;;;;;;4.30;3.80;;;;;;;24.69;45.14;100328.80;109229;1268;21987;-82
2022/06/28 00:41:56;;;;;;;5.70;3.50;;;;;;;24.66;45.37;100332.36;108580;1276;23780;-80
2022/06/28 00:44:57;;;;;;;5.50;3.40;;;;;;;24.63;45.46;100333.21;108264;1283;23600;-81
2022/06/28 00:48:07;;;;;;;5.30;4.20;;;;;;;24.59;45.62;100331.40;108153;1285;23627;-80
2022/06/28 00:52:08;;;;;;;;;;;;;;;;;;;;;
2022/06/28 00:55:49;;;;;;;;;;;;;;;;;;;;;
2022/06/28 00:58:58;;;;;;;7.70;4.50;;;;;;;24.45;46.22;100335.69;109507;1263;22278;-81
2022/06/28 01:02:06;;;;;;;4.50;4.00;;;;;;;24.43;46.23;100332.07;109919;1261;22001;-81
2022/06/28 01:05:52;;;;;;;5.10;3.80;;;;;;;24.39;46.39;100335.04;109668;1257;22324;-81
2022/06/28 01:13:15;;;;;;;;;;;;;;;;;;;;;
2022/06/28 01:16:31;;;;;;;6.10;4.00;;;;;;;24.31;46.76;100345.50;111080;1247;22046;-79
2022/06/28 01:19:41;;;;;;;;;;;;;;;;;;;;;
2022/06/28 01:23:19;;;;;;;;;;;;;;;;;;;;;
2022/06/28 01:26:36;;;;;;;6.00;4.50;;;;;;;24.25;47.18;100354.69;110014;1260;21960;-79
2022/06/28 01:29:44;;;;;;;;;;;;;;;;;;;;;
2022/06/28 01:33:37;;;;;;;4.70;4.20;;;;;;;24.17;47.50;100367.10;109404;1262;23621;-79
2022/06/28 01:37:26;;;;;;;5.20;4.20;;;;;;;24.14;47.53;100360.64;109399;1263;21982;-79
2022/06/28 01:40:13;;;;;;;9.00;4.20;;;;;;;24.14;47.77;100359.61;108881;1270;23023;-79
2022/06/28 01:43:25;;;;;;;;;;;;;;;;;;;;;
2022/06/28 01:47:15;;;;;;;5.50;4.20;;;;;;;24.09;47.90;100349.80;109574;1264;21980;-80
2022/06/28 01:51:08;;;;;;;5.30;4.40;;;;;;;24.03;48.05;100353.09;109367;1266;22750;-81
2022/06/28 01:54:32;;;;;;;9.70;4.20;;;;;;;23.98;48.24;100348.30;109406;1266;21994;-80
2022/06/28 01:57:33;;;;;;;6.20;4.70;;;;;;;23.96;48.39;100347.59;109259;1265;23607;-80
2022/06/28 02:01:36;;;;;;;8.90;4.10;;;;;;;23.90;48.72;100350.73;109234;1270;22000;-81
2022/06/28 02:05:01;;;;;;;;;;;;;;;;;;;;;
2022/06/28 02:09:01;;;;;;;;;;;;;;;;;;;;;
2022/06/28 02:12:26;;;;;;;6.70;4.60;;;;;;;23.82;49.18;100348.76;110635;1256;22068;-81
2022/06/28 02:15:20;;;;;;;6.10;4.00;;;;;;;23.81;49.38;100351.77;109983;1260;21961;-79
2022/06/28 02:18:48;;;;;;;6.50;5.90;;;;;;;23.83;49.41;100354.86;110410;1253;23056;-81
2022/06/28 02:22:19;;;;;;;;;;;;;;;;;;;;;
2022/06/28 02:26:15;;;;;;;;;;;;;;;;;;;;;
2022/06/28 02:29:35;;;;;;;6.30;4.80;;;;;;;23.97;49.26;100372.41;110784;1254;22751;-79
2022/06/28 02:43:41;;;;;;;;;;;;;;;;;;;;;
2022/06/28 02:47:07;;;;;;;8.00;5.30;;;;;;;23.98;49.63;100404.05;109796;1262;21997;-80
2022/06/28 02:49:55;;;;;;;9.70;5.30;;;;;;;24.00;49.62;100402.45;109841;1262;23689;-81
2022/06/28 02:53:16;;;;;;;5.10;4.60;;;;;;;24.05;49.47;100406.54;109768;1262;22027;-81
2022/06/28 02:56:20;;;;;;;9.60;5.00;;;;;;;24.11;49.56;100401.52;109910;1262;24052;-80
2022/06/28 02:59:53;;;;;;;9.80;6.20;;;;;;;24.13;49.49;100398.05;109688;1262;21996;-79
2022/06/28 03:03:08;;;;;;;8.00;5.20;;;;;;;24.11;49.59;100395.97;109907;1262;22076;-80
2022/06/28 03:06:10;;;;;;;7.60;5.80;;;;;;;24.12;49.59;100392.84;109504;1262;21992;-79
2022/06/28 03:09:10;;;;;;;5.40;4.90;;;;;;;24.09;49.59;100389.75;108811;1269;21989;-79
2022/06/28 03:11:52;;;;;;;6.00;5.40;;;;;;;24.03;49.69;100386.88;109203;1265;22613;-79
2022/06/28 03:14:47;;;;;;;7.30;5.80;;;;;;;23.96;49.92;100389.08;109044;1270;22000;-79
2022/06/28 03:17:59;;;;;;;9.60;6.20;;;;;;;23.88;50.17;100395.16;108103;1280;22911;-79
2022/06/28 03:21:03;;;;;;;7.70;5.70;;;;;;;23.86;50.53;100398.32;108172;1276;22022;-79
2022/06/28 03:24:04;;;;;;;7.30;6.00;;;;;;;23.88;50.72;100399.80;108569;1276;23227;-80
2022/06/28 03:27:48;;;;;;;7.90;6.40;;;;;;;23.86;50.71;100398.27;108595;1276;21989;-80
2022/06/28 03:30:35;;;;;;;7.40;6.10;;;;;;;23.82;50.81;100409.61;108791;1273;21995;-79
2022/06/28 03:33:45;;;;;;;;;;;;;;;;;;;;;
2022/06/28 03:37:11;;;;;;;9.10;6.70;;;;;;;23.87;51.17;100400.86;109395;1267;22002;-80
2022/06/28 03:40:36;;;;;;;6.80;5.80;;;;;;;23.92;51.37;100401.77;109222;1267;22514;-80
2022/06/28 03:44:17;;;;;;;7.10;6.50;;;;;;;23.97;51.48;100406.73;108429;1276;21996;-79
2022/06/28 03:47:36;;;;;;;8.60;6.80;;;;;;;24.04;51.49;100407.64;107995;1282;22159;-79
2022/06/28 03:51:06;;;;;;;;;;;;;;;;;;;;;
2022/06/28 03:53:56;;;;;;;11.40;6.80;;;;;;;24.25;51.36;100414.66;108047;1282;22357;-79
2022/06/28 03:57:26;;;;;;;;;;;;;;;;;;;;;
2022/06/28 04:00:43;;;;;;;18.20;7.10;;;;;;;24.39;51.19;100417.98;108677;1270;23613;-79
2022/06/28 04:04:08;;;;;;;15.50;7.60;;;;;;;24.50;51.18;100419.80;109074;1267;23078;-80
2022/06/28 04:07:02;;;;;;;10.00;6.40;;;;;;;24.59;51.11;100418.25;109793;1263;21999;-81
2022/06/28 04:10:35;;;;;;;7.60;6.80;;;;;;;24.67;51.06;100412.73;109021;1270;21989;-80
2022/06/28 04:13:51;;;;;;;7.50;6.70;;;;;;;24.77;51.13;100413.79;108580;1270;22011;-81
2022/06/28 04:17:15;;;;;;;9.80;6.90;;;;;;;24.85;50.95;100419.48;108829;1270;21977;-80
2022/06/28 04:24:27;;;;;;;;;;;;;;;;;;;;;
2022/06/28 04:27:40;;;;;;;6.90;5.90;;;;;;;25.02;51.92;100450.27;108806;1270;22682;-80
2022/06/28 04:31:49;;;;;;;;;;;;;;;;;;;;;
2022/06/28 04:35:06;;;;;;;;;;;;;;;;;;;;;
2022/06/28 04:38:43;;;;;;;8.10;6.00;;;;;;;25.01;52.96;100469.55;108980;1271;21994;-79
2022/06/28 04:41:49;;;;;;;;;;;;;;;;;;;;;
2022/06/28 04:47:55;;;;;;;6.70;5.90;;;;;;;25.07;54.09;100485.16;108201;1283;22015;-80
2022/06/28 04:50:42;;;;;;;18.40;7.20;;;;;;;25.08;54.26;100485.02;107836;1282;22119;-80
2022/06/28 04:54:01;;;;;;;13.20;7.30;;;;;;;25.09;54.41;100485.71;108353;1280;23715;-80
2022/06/28 04:56:52;;;;;;;;;;;;;;;;;;;;;
2022/06/28 04:59:31;;;;;;;12.70;7.20;;;;;;;25.03;54.97;100484.21;108122;1283;23171;-80
2022/06/28 05:02:28;;;;;;;7.60;6.70;;;;;;;25.02;55.26;100493.99;108103;1281;22118;-80
2022/06/28 05:05:17;;;;;;;10.10;7.40;;;;;;;25.06;55.66;100496.49;108202;1279;22591;-81
2022/06/28 05:08:13;;;;;;;10.20;7.30;;;;;;;25.06;55.67;100492.29;108391;1281;22008;-79
2022/06/28 05:11:28;;;;;;;16.90;7.20;;;;;;;25.01;55.79;100492.74;108228;1273;21994;-80
2022/06/28 05:14:53;;;;;;;8.10;7.30;;;;;;;24.96;56.31;100493.58;108704;1273;22043;-80
2022/06/28 05:18:41;;;;;;;8.50;7.60;;;;;;;24.89;56.35;100488.34;108497;1273;22314;-79
2022/06/28 05:22:12;;;;;;;;;;;;;;;;;;;;;
2022/06/28 05:26:07;;;;;;;;;;;;;;;;;;;;;
2022/06/28 05:29:53;;;;;;;15.20;7.70;;;;;;;24.80;57.14;100499.94;108453;1273;21993;-81
2022/06/28 05:33:07;;;;;;;9.80;7.60;;;;;;;24.83;57.01;100499.00;108757;1275;23711;-81
2022/06/28 05:35:59;;;;;;;14.20;7.50;;;;;;;24.86;56.98;100489.88;109550;1264;21975;-83
2022/06/28 05:38:38;;;;;;;12.30;7.70;;;;;;;24.92;57.01;100480.58;109474;1264;21981;-83
2022/06/28 05:41:37;;;;;;;;;;;;;;;;;;;;;
2022/06/28 05:44:28;;;;;;;12.30;8.20;;;;;;;25.03;56.76;100470.86;109650;1261;23060;-83
2022/06/28 05:47:32;;;;;;;;;;;;;;;;;;;;;
2022/06/28 05:50:27;;;;;;;;;;;;;;;;;;;;;
2022/06/28 05:53:23;;;;;;;12.50;9.60;;;;;;;25.32;56.65;100470.73;109497;1264;23776;-81
2022/06/28 05:56:29;;;;;;;18.80;8.00;;;;;;;25.58;57.23;100476.04;109476;1264;21986;-82
2022/06/28 05:59:32;;;;;;;11.60;6.80;;;;;;;26.04;57.08;100486.23;109751;1256;22000;-83
2022/06/28 06:02:16;;;;;;;11.10;7.90;;;;;;;26.63;56.39;100494.78;110369;1256;22685;-82
2022/06/28 06:04:59;;;;;;;11.60;8.30;;;;;;;27.19;55.00;100495.06;110001;1259;21988;-82
2022/06/28 06:07:38;;;;;;;8.50;7.40;;;;;;;27.69;53.15;100494.70;109742;1259;21990;-82
2022/06/28 06:10:33;;;;;;;13.20;7.00;;;;;;;27.98;51.31;100489.90;109855;1257;23935;-81
2022/06/28 06:13:30;;;;;;;9.60;6.60;;;;;;;28.01;49.75;100482.83;110541;1257;23049;-80
2022/06/28 06:16:09;;;;;;;9.60;8.10;;;;;;;27.98;49.35;100481.22;110485;1257;21990;-80
2022/06/28 06:18:53;;;;;;;17.80;7.50;;;;;;;28.05;49.14;100489.48;110423;1257;23872;-81
2022/06/28 06:22:01;;;;;;;14.90;7.20;;;;;;;28.11;48.92;100499.45;110264;1257;24019;-87
2022/06/28 06:25:00;;;;;;;25.70;10.20;;;;;;;28.23;48.28;100507.35;110861;1253;21965;-84
2022/06/28 06:28:04;;;;;;;16.80;9.00;;;;;;;28.30;47.93;100516.16;110699;1251;23032;-83
2022/06/28 06:31:09;;;;;;;;;;;;;;;;;;;;;
2022/06/28 06:34:09;;;;;;;;;;;;;;;;;;;;;
2022/06/28 06:37:27;;;;;;;18.10;9.30;;;;;;;28.64;47.12;100531.33;111014;1251;23024;-81
2022/06/28 06:40:08;;;;;;;23.80;10.70;;;;;;;28.56;46.91;100526.70;111049;1250;22962;-80
2022/06/28 06:42:39;;;;;;;12.20;9.70;;;;;;;28.49;46.72;100520.95;110749;1250;23745;-83
2022/06/28 06:45:27;;;;;;;20.30;10.00;;;;;;;28.32;46.83;100523.55;110578;1257;23553;-83
2022/06/28 06:48:05;;;;;;;61.50;22.60;;;;;;;28.31;47.85;100532.52;110294;1257;22429;-81
2022/06/28 06:50:37;;;;;;;49.80;19.00;;;;;;;28.41;48.03;100534.15;109564;1261;22613;-82
2022/06/28 06:53:19;;;;;;;38.10;14.70;;;;;;;28.70;48.20;100532.41;109625;1261;21990;-83
2022/06/28 06:55:52;;;;;;;46.30;22.00;;;;;;;28.97;47.37;100533.52;109231;1267;22071;-80
2022/06/28 06:58:27;;;;;;;18.30;11.30;;;;;;;29.12;46.42;100538.66;108906;1273;22180;-81
2022/06/28 07:01:07;;;;;;;15.10;11.40;;;;;;;29.30;46.61;100539.08;108951;1273;21992;-79
2022/06/28 07:03:58;;;;;;;14.40;10.80;;;;;;;29.43;45.61;100539.95;109101;1270;21993;-81
2022/06/28 07:06:35;;;;;;;13.00;9.30;;;;;;;29.54;45.38;100544.36;109288;1267;23800;-79
2022/06/28 07:10:04;;;;;;;;;;;;;;;;;;;;;
2022/06/28 07:13:17;;;;;;;13.80;8.20;;;;;;;30.13;44.93;100560.71;110093;1260;23078;-82
2022/06/28 07:16:30;;;;;;;14.70;10.30;;;;;;;30.48;44.05;100557.60;110156;1256;23040;-83
2022/06/28 07:19:58;;;;;;;12.10;7.80;;;;;;;30.84;42.65;100559.46;109952;1262;22113;-82
2022/06/28 07:23:40;;;;;;;16.50;9.40;;;;;;;31.06;42.34;100567.77;109039;1270;21996;-82
2022/06/28 07:26:49;;;;;;;12.70;7.90;;;;;;;31.09;41.30;100575.69;109059;1271;21987;-80
2022/06/28 07:29:43;;;;;;;33.10;9.30;;;;;;;30.87;40.95;100577.19;109007;1271;23074;-81
2022/06/28 07:32:57;;;;;;;19.10;8.00;;;;;;;30.49;41.11;100586.23;108527;1276;21991;-82
2022/06/28 07:36:15;;;;;;;;;;;;;;;;;;;;;
2022/06/28 07:39:50;;;;;;;;;;;;;;;;;;;;;
2022/06/28 07:43:04;;;;;;;7.90;6.70;;;;;;;29.70;42.64;100600.66;109742;1264;22233;-82
2022/06/28 07:46:55;;;;;;;;;;;;;;;;;;;;;
2022/06/28 07:53:16;;;;;;;9.10;7.10;;;;;;;29.22;43.50;100607.55;109807;1261;22127;-81
2022/06/28 07:56:38;;;;;;;8.20;6.20;;;;;;;29.09;43.78;100610.45;109750;1261;22376;-82
2022/06/28 08:03:35;;;;;;;8.90;6.40;;;;;;;29.05;44.17;100619.72;110271;1259;21955;-82
2022/06/28 08:06:51;;;;;;;;;;;;;;;;;;;;;
2022/06/28 08:10:08;;;;;;;10.40;9.30;;;;;;;28.77;44.24;100626.70;110123;1259;23714;-84
2022/06/28 08:13:54;;;;;;;;;;;;;;;;;;;;;
2022/06/28 08:17:03;;;;;;;;;;;;;;;;;;;;;
2022/06/28 08:20:35;;;;;;;;;;;;;;;;;;;;;
2022/06/28 08:23:17;;;;;;;9.50;8.50;;;;;;;28.30;45.87;100643.95;110025;1256;21970;-81
2022/06/28 08:26:06;;;;;;;9.10;8.20;;;;;;;28.25;45.74;100647.83;109936;1262;23603;-82
2022/06/28 08:29:15;;;;;;;;;;;;;;;;;;;;;
2022/06/28 08:32:23;;;;;;;;;;;;;;;;;;;;;
2022/06/28 08:35:19;;;;;;;16.30;14.80;;;;;;;27.89;46.10;100672.30;110584;1257;22156;-88
2022/06/28 08:38:00;;;;;;;13.00;10.80;;;;;;;27.77;46.47;100675.55;110353;1257;21972;-82
2022/06/28 08:40:52;;;;;;;6.40;5.90;;;;;;;27.70;46.58;100679.80;110354;1259;23149;-81
2022/06/28 08:43:42;;;;;;;8.90;6.50;;;;;;;27.60;46.89;100682.30;110833;1250;23590;-82
2022/06/28 08:46:41;;;;;;;10.20;7.00;;;;;;;27.59;47.32;100680.72;111147;1249;23641;-82
2022/06/28 08:50:28;;;;;;;;;;;;;;;;;;;;;
2022/06/28 08:53:51;;;;;;;9.80;5.30;;;;;;;27.72;47.20;100672.25;110635;1256;21993;-82
2022/06/28 08:57:35;;;;;;;;;;;;;;;;;;;;;
2022/06/28 09:00:52;;;;;;;12.60;5.40;;;;;;;27.78;46.97;100682.79;110070;1260;21980;-81
2022/06/28 09:04:53;;;;;;;7.40;4.10;;;;;;;27.68;46.78;100691.84;109142;1271;23068;-84
2022/06/28 09:07:55;;;;;;;6.40;4.60;;;;;;;27.52;46.76;100700.48;108904;1272;22793;-82
2022/06/28 09:10:36;;;;;;;6.70;4.60;;;;;;;27.37;46.95;100701.85;108969;1271;21991;-84
2022/06/28 09:13:26;;;;;;;7.40;5.00;;;;;;;27.22;47.37;100701.13;108903;1271;22818;-85
2022/06/28 09:16:46;;;;;;;6.90;4.30;;;;;;;27.10;47.97;100702.46;109226;1269;22015;-84
2022/06/28 09:20:16;;;;;;;4.80;4.40;;;;;;;26.96;48.51;100701.60;108694;1279;21991;-83
2022/06/28 09:23:58;;;;;;;;;;;;;;;;;;;;;
2022/06/28 09:27:26;;;;;;;9.00;4.50;;;;;;;26.80;49.87;100709.59;108916;1273;22895;-83
2022/06/28 09:30:26;;;;;;;;;;;;;;;;;;;;;
2022/06/28 09:34:20;;;;;;;;;;;;;;;;;;;;;
2022/06/28 09:38:08;;;;;;;;;;;;;;;;;;;;;
2022/06/28 09:41:34;;;;;;;7.80;5.20;;;;;;;26.57;50.64;100707.96;108421;1279;22782;-84
2022/06/28 09:44:26;;;;;;;8.80;5.40;;;;;;;26.56;50.75;100712.05;108728;1276;23059;-83
2022/06/28 09:47:23;;;;;;;8.20;5.40;;;;;;;26.66;51.24;100711.89;108754;1276;22842;-79
2022/06/28 09:50:40;;;;;;;;;;;;;;;;;;;;;
2022/06/28 09:54:02;;;;;;;5.90;5.00;;;;;;;26.91;50.66;100716.41;108715;1276;22002;-80
2022/06/28 09:57:48;;;;;;;;;;;;;;;;;;;;;
2022/06/28 10:01:21;;;;;;;;;;;;;;;;;;;;;
2022/06/28 10:04:50;;;;;;;9.20;5.40;;;;;;;27.55;50.32;100706.08;109291;1265;21982;-81
2022/06/28 10:08:34;;;;;;;;;;;;;;;;;;;;;
2022/06/28 10:15:01;;;;;;;9.70;5.10;;;;;;;27.92;49.04;100707.52;109237;1267;21993;-83
2022/06/28 10:18:11;;;;;;;7.20;4.20;;;;;;;27.97;47.91;100706.15;109499;1262;22194;-81
2022/06/28 10:22:11;;;;;;;12.00;5.00;;;;;;;27.91;48.49;100711.92;110117;1260;22868;-79
2022/06/28 10:25:52;;;;;;;;;;;;;;;;;;;;;
2022/06/28 10:33:13;;;;;;;10.90;5.60;;;;;;;27.90;47.82;100728.65;109965;1261;21983;-81
2022/06/28 10:36:34;;;;;;;10.60;5.30;;;;;;;27.76;47.95;100730.55;109897;1262;22339;-80
2022/06/28 10:39:35;;;;;;;8.40;5.90;;;;;;;27.63;48.47;100735.42;109651;1261;21942;-82
2022/06/28 10:47:26;;;;;;;11.60;5.50;;;;;;;27.21;48.87;100772.79;110150;1257;22009;-83
2022/06/28 10:51:06;;;;;;;5.50;4.20;;;;;;;26.99;48.91;100783.98;109965;1261;22404;-78
2022/06/28 10:54:28;;;;;;;;;;;;;;;;;;;;;
2022/06/28 10:57:48;;;;;;;5.40;3.80;;;;;;;26.37;50.18;100801.08;109715;1261;23646;-79
2022/06/28 11:01:50;;;;;;;;;;;;;;;;;;;;;
2022/06/28 11:06:09;;;;;;;26.00;5.80;;;;;;;25.78;51.09;100821.09;108647;1276;22004;-83
2022/06/28 11:09:15;;;;;;;8.90;4.30;;;;;;;25.52;51.74;100825.42;108490;1274;22008;-81
2022/06/28 11:12:48;;;;;;;6.70;5.20;;;;;;;25.29;52.33;100823.57;108796;1273;22198;-82
2022/06/28 11:15:58;;;;;;;11.40;4.70;;;;;;;24.94;54.06;100828.60;108449;1279;23149;-83
2022/06/28 11:18:36;;;;;;;7.20;4.90;;;;;;;24.76;55.54;100838.37;108119;1283;22010;-84
2022/06/28 11:21:42;;;;;;;10.20;5.80;;;;;;;24.65;56.72;100840.98;108355;1282;22007;-82
2022/06/28 11:24:44;;;;;;;9.20;6.80;;;;;;;24.52;57.74;100850.68;108711;1276;22783;-79
2022/06/28 11:27:31;;;;;;;10.00;8.30;;;;;;;24.45;58.68;100857.01;108461;1277;23040;-78
2022/06/28 11:30:11;;;;;;;15.50;12.20;;;;;;;24.38;59.37;100854.61;108286;1282;22135;-77
2022/06/28 11:32:49;;;;;;;12.00;9.20;;;;;;;24.31;59.95;100857.26;108059;1282;22808;-77
2022/06/28 11:35:41;;;;;;;10.80;9.00;;;;;;;24.22;60.86;100860.48;108070;1282;23860;-77
2022/06/28 11:38:14;;;;;;;10.70;7.90;;;;;;;24.16;61.35;100860.90;107992;1282;24586;-76
2022/06/28 11:40:52;;;;;;;7.80;7.10;;;;;;;24.08;61.95;100859.25;108104;1276;23605;-76
2022/06/28 11:43:40;;;;;;;9.60;7.60;;;;;;;23.98;62.85;100853.64;108525;1276;22469;-76
2022/06/28 11:46:18;;;;;;;7.80;6.90;;;;;;;23.92;63.58;100856.80;108760;1270;21985;-75
2022/06/28 11:48:55;;;;;;;7.90;7.10;;;;;;;23.93;64.40;100861.13;108584;1273;22052;-76
2022/06/28 11:51:32;;;;;;;9.10;7.10;;;;;;;23.91;64.67;100861.52;108426;1270;23723;-77
2022/06/28 11:54:08;;;;;;;8.80;6.70;;;;;;;23.86;64.86;100860.09;109046;1269;22217;-77
2022/06/28 11:56:47;;;;;;;9.60;6.90;;;;;;;23.79;65.01;100862.01;109402;1264;23661;-79
2022/06/28 11:59:17;;;;;;;9.20;8.30;;;;;;;23.72;65.39;100863.08;109324;1264;21969;-78
2022/06/28 12:01:46;;;;;;;7.90;7.00;;;;;;;23.75;66.01;100859.83;109280;1262;22130;-80
2022/06/28 12:04:25;;;;;;;8.30;6.80;;;;;;;23.78;66.24;100858.00;109873;1260;21970;-78
2022/06/28 12:06:56;;;;;;;10.10;7.60;;;;;;;23.77;66.42;100856.63;109662;1256;22075;-79
2022/06/28 12:09:25;;;;;;;10.90;7.50;;;;;;;23.78;66.85;100856.81;110367;1252;21944;-82
2022/06/28 12:12:03;;;;;;;9.10;8.10;;;;;;;23.80;67.48;100853.83;110551;1253;22703;-78
2022/06/28 12:14:46;;;;;;;8.20;7.40;;;;;;;23.83;67.65;100850.75;110544;1253;24032;-78
2022/06/28 12:17:48;;;;;;;9.30;7.90;;;;;;;23.85;67.75;100847.76;110575;1253;23698;-78
2022/06/28 12:20:25;;;;;;;7.90;7.00;;;;;;;23.86;67.83;100851.77;110297;1253;289419;-78
2022/06/28 12:22:58;;;;;;;10.30;8.40;;;;;;;23.87;67.87;100849.20;110464;1253;21954;-78
2022/06/28 12:25:30;;;;;;;10.90;8.70;;;;;;;23.88;67.89;100850.27;110520;1254;22313;-82
2022/06/28 12:28:11;;;;;;;9.30;8.30;;;;;;;23.89;68.11;100852.42;110798;1253;22017;-79
2022/06/28 12:30:41;;;;;;;9.60;8.70;;;;;;;23.96;68.32;100857.55;110709;1248;21964;-74
2022/06/28 12:33:10;;;;;;;9.60;8.50;;;;;;;24.00;68.57;100856.15;110737;1250;22001;-77
2022/06/28 12:35:44;;;;;;;8.60;7.80;;;;;;;23.99;68.17;100854.04;110911;1250;23539;-75
2022/06/28 12:38:23;;;;;;;10.20;8.80;;;;;;;23.88;68.09;100862.08;110554;1253;22739;-76
2022/06/28 12:41:12;;;;;;;9.30;8.50;;;;;;;23.75;68.37;100860.45;110302;1253;22567;-75
2022/06/28 12:43:44;;;;;;;9.90;8.20;;;;;;;23.71;68.70;100855.02;110234;1253;21975;-76
2022/06/28 12:46:40;;;;;;;;;;;;;;;;;;;;;
2022/06/28 12:49:25;;;;;;;12.10;8.80;;;;;;;23.94;69.77;100839.93;110633;1254;23034;-78
2022/06/28 12:52:01;;;;;;;8.30;7.40;;;;;;;24.14;69.80;100833.56;110560;1253;23796;-74
2022/06/28 12:54:38;;;;;;;8.60;7.90;;;;;;;24.33;69.26;100827.84;110485;1254;24357;-76
2022/06/28 12:57:16;;;;;;;14.60;13.50;;;;;;;24.53;68.82;100820.88;110734;1250;21964;-77
2022/06/28 13:00:08;;;;;;;9.70;8.90;;;;;;;24.77;68.14;100812.77;110912;1249;24389;-75
2022/06/28 13:03:37;;;;;;;10.20;7.70;;;;;;;24.96;67.57;100802.91;110900;1250;23593;-75
2022/06/28 13:07:03;;;;;;;8.80;8.00;;;;;;;25.15;67.22;100798.43;111022;1250;22980;-74
2022/06/28 13:09:41;;;;;;;10.40;8.40;;;;;;;25.36;66.85;100792.77;110906;1250;21965;-75
2022/06/28 13:12:26;;;;;;;10.10;9.20;;;;;;;25.47;66.34;100800.94;110291;1256;21979;-74
2022/06/28 13:15:18;;;;;;;9.90;8.90;;;;;;;25.53;65.95;100802.08;110426;1256;21994;-76
2022/06/28 13:18:17;;;;;;;10.50;9.00;;;;;;;25.58;66.48;100799.90;110269;1256;22316;-74
2022/06/28 13:21:00;;;;;;;9.80;8.60;;;;;;;25.72;66.30;100794.62;110020;1259;21962;-75
2022/06/28 13:23:33;;;;;;;8.50;7.80;;;;;;;25.86;65.56;100794.32;109915;1261;23509;-74
2022/06/28 13:26:32;;;;;;;8.00;6.90;;;;;;;25.94;64.93;100786.16;110037;1259;22390;-76
2022/06/28 13:29:19;;;;;;;7.60;6.90;;;;;;;26.01;64.64;100780.64;109768;1259;22513;-77
2022/06/28 13:32:10;;;;;;;9.70;6.80;;;;;;;26.09;64.44;100775.55;110047;1257;21975;-76
2022/06/28 13:34:40;;;;;;;7.80;7.00;;;;;;;26.12;64.04;100776.32;110235;1256;23088;-74
2022/06/28 13:37:09;;;;;;;7.40;6.80;;;;;;;26.14;63.76;100777.97;110391;1256;22201;-74
2022/06/28 13:39:38;;;;;;;9.60;7.70;;;;;;;26.17;63.42;100773.59;110519;1254;22059;-74
2022/06/28 13:42:08;;;;;;;7.40;6.60;;;;;;;26.20;62.98;100767.45;109824;1261;21959;-74
2022/06/28 13:44:42;;;;;;;7.90;6.40;;;;;;;26.25;63.08;100772.17;109709;1259;23685;-75
2022/06/28 13:47:15;;;;;;;7.10;6.30;;;;;;;26.29;63.00;100769.16;109662;1259;21981;-75
2022/06/28 13:49:44;;;;;;;8.50;7.50;;;;;;;26.34;62.75;100768.21;110018;1256;22008;-75
2022/06/28 13:52:14;;;;;;;8.90;6.60;;;;;;;26.37;62.16;100774.02;110300;1256;23000;-75
2022/06/28 13:54:43;;;;;;;7.20;6.50;;;;;;;26.38;61.60;100775.94;110007;1257;23573;-75
2022/06/28 13:57:16;;;;;;;8.10;6.50;;;;;;;26.41;61.27;100776.92;110314;1257;22445;-75
2022/06/28 13:59:51;;;;;;;6.50;5.90;;;;;;;26.43;60.34;100779.27;110106;1250;22059;-75
2022/06/28 14:02:31;;;;;;;7.40;6.80;;;;;;;26.39;59.14;100778.92;110947;1250;22880;-75
2022/06/28 14:05:12;;;;;;;7.20;6.70;;;;;;;26.35;58.63;100777.42;110823;1250;23014;-76
2022/06/28 14:07:45;;;;;;;8.00;7.00;;;;;;;26.33;58.21;100771.36;110698;1250;21969;-76
2022/06/28 14:10:14;;;;;;;7.20;6.20;;;;;;;26.32;57.73;100765.88;110875;1250;23569;-75
2022/06/28 14:12:51;;;;;;;;;;;;;;;26.29;57.60;100764.89;110725;1250;21960;-75
2022/06/28 14:15:23;;;;;;;6.60;6.00;;;;;;;26.25;57.74;100763.89;110590;1256;21962;-74
2022/06/28 14:21:34;;;;;;;6.80;6.20;;;;;;;26.38;57.52;100757.04;109180;1267;23076;-76
2022/06/28 14:24:08;;;;;;;6.80;6.00;;;;;;;26.49;56.78;100757.71;109316;1267;22083;-78
2022/06/28 14:26:51;;;;;;;6.60;5.90;;;;;;;26.60;56.12;100754.13;109229;1266;22425;-77
2022/06/28 14:29:31;;;;;;;6.60;6.00;;;;;;;26.69;55.61;100748.91;109089;1268;22292;-74
2022/06/28 14:32:01;;;;;;;6.20;5.70;;;;;;;26.79;55.15;100750.52;108771;1270;23149;-75
2022/06/28 14:34:31;;;;;;;6.60;6.00;;;;;;;26.87;54.88;100749.08;109197;1265;22118;-75
2022/06/28 14:37:00;;;;;;;8.60;7.30;;;;;;;26.96;54.62;100748.62;108857;1270;21982;-76
2022/06/28 14:39:32;;;;;;;6.70;6.10;;;;;;;27.01;53.87;100743.36;108813;1268;23071;-77
2022/06/28 14:42:09;;;;;;;9.00;5.90;;;;;;;27.06;53.72;100737.20;109209;1267;23618;-80
2022/06/28 14:44:42;;;;;;;6.90;5.90;;;;;;;27.07;53.18;100732.54;108865;1270;24350;-77
2022/06/28 14:47:24;;;;;;;7.20;6.00;;;;;;;27.08;53.24;100732.87;108979;1267;21999;-77
2022/06/28 14:50:18;;;;;;;7.00;6.40;;;;;;;27.06;53.19;100738.60;109130;1267;21995;-80
2022/06/28 14:53:26;;;;;;;6.70;5.70;;;;;;;27.06;53.18;100742.90;109363;1267;21985;-79
2022/06/28 14:56:00;;;;;;;6.10;5.50;;;;;;;27.07;52.96;100742.95;109052;1267;23662;-80
2022/06/28 14:58:37;;;;;;;6.70;6.00;;;;;;;27.00;52.72;100746.29;109353;1263;22430;-77
2022/06/28 15:01:25;;;;;;;6.50;5.90;;;;;;;26.93;52.46;100748.40;109332;1265;21983;-77
2022/06/28 15:04:08;;;;;;;6.00;5.50;;;;;;;26.87;52.50;100749.79;109396;1262;21974;-77
2022/06/28 15:07:04;;;;;;;8.60;5.50;;;;;;;26.81;52.50;100749.77;109834;1259;23577;-79
2022/06/28 15:09:48;;;;;;;5.70;5.30;;;;;;;26.77;52.43;100752.30;110287;1259;23043;-80
2022/06/28 15:12:58;;;;;;;6.10;5.60;;;;;;;26.70;52.51;100751.41;109188;1265;22081;-79
2022/06/28 15:15:48;;;;;;;5.80;5.30;;;;;;;26.62;52.63;100747.91;109530;1262;22047;-79
2022/06/28 15:18:21;;;;;;;6.40;5.90;;;;;;;26.58;52.77;100745.19;109837;1259;24291;-77
2022/06/28 15:20:57;;;;;;;6.10;5.60;;;;;;;26.54;52.76;100752.10;109717;1259;23823;-77
2022/06/28 15:32:16;;;;;;;10.20;6.20;;;;;;;26.40;52.38;100756.08;110860;1256;23723;-79
2022/06/28 15:35:16;;;;;;;5.90;5.30;;;;;;;26.36;52.44;100757.63;109980;1256;23677;-77
2022/06/28 15:37:50;;;;;;;6.30;5.70;;;;;;;26.33;52.73;100764.70;110522;1256;21976;-76
2022/06/28 15:40:29;;;;;;;6.90;6.30;;;;;;;26.36;52.78;100769.38;110201;1256;21962;-78
2022/06/28 15:43:08;;;;;;;6.80;6.00;;;;;;;26.40;52.84;100771.67;110180;1256;22063;-78
2022/06/28 15:45:38;;;;;;;6.00;5.50;;;;;;;26.43;52.91;100777.98;110575;1256;22243;-79
2022/06/28 15:48:10;;;;;;;8.70;5.70;;;;;;;26.45;52.45;100773.33;110067;1256;21966;-79
2022/06/28 15:50:54;;;;;;;6.90;5.30;;;;;;;26.46;52.50;100771.61;110577;1257;21971;-78
2022/06/28 15:53:27;;;;;;;5.90;5.50;;;;;;;26.49;52.15;100769.30;110620;1250;21973;-77
2022/06/28 15:56:06;;;;;;;5.80;5.10;;;;;;;26.49;51.64;100767.08;110808;1250;21976;-78
2022/06/28 15:58:41;;;;;;;7.50;6.20;;;;;;;26.44;51.36;100765.41;110968;1250;23959;-78
2022/06/28 16:01:19;;;;;;;5.20;4.80;;;;;;;26.40;51.41;100765.60;110852;1250;24348;-79
2022/06/28 16:04:18;;;;;;;6.00;5.50;;;;;;;26.39;51.69;100766.90;111271;1248;21973;-77
2022/06/28 16:06:52;;;;;;;5.60;5.10;;;;;;;26.43;51.43;100769.85;110953;1250;23665;-78
2022/06/28 16:09:30;;;;;;;5.10;4.70;;;;;;;26.44;51.57;100772.77;110524;1256;23015;-77
2022/06/28 16:15:12;;;;;;;5.50;5.00;;;;;;;26.45;51.49;100770.08;110443;1256;22236;-78
2022/06/28 16:17:53;;;;;;;6.50;5.80;;;;;;;26.47;51.49;100765.50;110292;1256;22591;-77
2022/06/28 16:20:52;;;;;;;;;;;;;;;;;;;;;